Terminal Aerodrome Forecast
Issued by NWS

Current Version | Previous Version | Text Only | Print | Product List | Glossary On
Versions: 1 2 3 4 5 6 7 8 9 10 11 12 13 14
000
FTUS44 KTSA 181700
TAFRVS
TAF
KRVS 181737Z 1818/1918 18006KT P6SM BKN040 BKN100
     FM182000 13007KT P6SM SCT040 BKN120
     FM190100 00000KT P6SM SCT250
     FM190800 00000KT 4SM BR SCT025
     FM191500 17006KT P6SM SCT040=

USA.gov is the U.S. government's official web portal to all federal, state and local government web resources and services.